Time;durP1;ratioP1;P1;durP2;ratioP2;P2;SDS_P1;SDS_P2;PMS_P1;PMS_P2;Temp;Humidity;BMP_temperature;BMP_pressure;BME280_temperature;BME280_humidity;BME280_pressure;Samples;Min_cycle;Max_cycle;Signal;HPM_P1;HPM_P2
2021/09/25 00:00:33;;;;;;;17.80;9.85;;;;;;;18.57;51.52;100450.16;4951276;28;20086;-72
2021/09/25 00:03:01;;;;;;;15.73;10.43;;;;;;;18.53;52.69;100467.13;4952714;28;20031;-72
2021/09/25 00:05:38;;;;;;;20.75;9.27;;;;;;;18.73;52.59;100483.31;4952222;28;20118;-74
2021/09/25 00:08:04;;;;;;;15.70;10.25;;;;;;;18.60;52.40;100470.47;4952743;29;20043;-73
2021/09/25 00:10:31;;;;;;;14.80;8.23;;;;;;;18.49;52.40;100498.22;4950931;28;20035;-73
2021/09/25 00:12:57;;;;;;;16.10;9.00;;;;;;;18.21;53.58;100490.22;4981883;28;20062;-73
2021/09/25 00:15:24;;;;;;;14.57;8.82;;;;;;;18.00;53.33;100462.53;4955137;28;20051;-73
2021/09/25 00:17:49;;;;;;;22.95;10.55;;;;;;;17.95;53.03;100468.91;4951438;28;20039;-73
2021/09/25 00:20:17;;;;;;;15.88;9.27;;;;;;;18.13;52.97;100492.28;4950221;28;20043;-73
2021/09/25 00:22:42;;;;;;;16.50;9.70;;;;;;;17.85;53.67;100500.16;4949649;29;20059;-73
2021/09/25 00:25:09;;;;;;;17.85;9.73;;;;;;;18.10;53.69;100498.53;4947333;29;20042;-73
2021/09/25 00:27:35;;;;;;;17.38;9.43;;;;;;;18.05;52.90;100487.19;4951048;29;20488;-75
2021/09/25 00:30:02;;;;;;;13.23;9.38;;;;;;;17.73;53.90;100491.59;4949965;28;20051;-73
2021/09/25 00:32:27;;;;;;;17.83;10.93;;;;;;;17.60;53.64;100492.84;4951209;29;20110;-74
2021/09/25 00:34:53;;;;;;;14.45;10.00;;;;;;;17.63;53.35;100516.69;4961147;28;20481;-74
2021/09/25 00:37:18;;;;;;;24.45;12.70;;;;;;;17.52;53.24;100509.00;4946127;29;20066;-72
2021/09/25 00:39:44;;;;;;;19.08;10.82;;;;;;;17.81;52.93;100523.25;4951538;28;20032;-75
2021/09/25 00:42:09;;;;;;;11.85;10.45;;;;;;;18.04;52.83;100527.94;4951884;28;20384;-73
2021/09/25 00:44:35;;;;;;;27.88;10.93;;;;;;;17.91;52.94;100505.28;4983113;28;20047;-73
2021/09/25 00:47:01;;;;;;;13.88;11.27;;;;;;;17.66;52.55;100523.69;4948350;28;20039;-74
2021/09/25 00:49:26;;;;;;;17.42;11.55;;;;;;;17.46;54.13;100501.19;4947404;28;20035;-73
2021/09/25 00:51:52;;;;;;;18.42;13.25;;;;;;;17.67;53.77;100513.00;4949827;28;20031;-73
2021/09/25 00:54:18;;;;;;;15.77;11.50;;;;;;;17.91;52.88;100538.03;4950411;29;20039;-73
2021/09/25 00:56:47;;;;;;;14.45;10.57;;;;;;;18.00;53.00;100544.00;4949648;28;20477;-73
2021/09/25 00:59:14;;;;;;;18.30;10.57;;;;;;;17.73;54.08;100544.69;4951083;29;20102;-73
2021/09/25 01:01:40;;;;;;;14.93;11.27;;;;;;;17.54;54.11;100524.03;4948735;29;20519;-74
2021/09/25 01:04:06;;;;;;;22.05;11.80;;;;;;;17.64;54.03;100539.63;4949141;29;20118;-74
2021/09/25 01:06:32;;;;;;;14.32;10.95;;;;;;;17.54;54.21;100548.75;4950395;28;20043;-74
2021/09/25 01:08:58;;;;;;;16.90;10.27;;;;;;;17.65;54.07;100532.53;4950657;28;20055;-73
2021/09/25 01:11:25;;;;;;;19.23;11.80;;;;;;;17.78;53.80;100543.69;4950401;28;20035;-73
2021/09/25 01:13:52;;;;;;;22.70;12.52;;;;;;;17.61;53.34;100515.84;4947605;28;20035;-74
2021/09/25 01:16:18;;;;;;;29.05;11.82;;;;;;;17.66;53.45;100528.97;4945797;28;20059;-74
2021/09/25 01:18:43;;;;;;;18.45;13.15;;;;;;;17.66;53.23;100518.38;4951394;29;20118;-74
2021/09/25 01:21:09;;;;;;;24.10;13.27;;;;;;;17.62;53.39;100533.50;4948754;29;20416;-74
2021/09/25 01:23:36;;;;;;;16.45;12.00;;;;;;;17.28;53.64;100538.84;4946346;28;20073;-74
2021/09/25 01:26:03;;;;;;;13.75;11.63;;;;;;;17.57;54.04;100553.97;4948487;28;20039;-73
2021/09/25 01:28:29;;;;;;;19.80;13.15;;;;;;;17.64;53.39;100552.91;4949139;28;20488;-73
2021/09/25 01:30:55;;;;;;;28.88;14.27;;;;;;;17.66;53.30;100537.81;4943047;28;20035;-72
2021/09/25 01:33:39;;;;;;;27.95;14.20;;;;;;;17.65;53.66;100562.63;4936827;28;20472;-73
2021/09/25 01:36:06;;;;;;;26.33;13.77;;;;;;;17.54;53.89;100577.09;4949566;29;20039;-73
2021/09/25 01:38:32;;;;;;;19.05;14.05;;;;;;;17.69;52.80;100566.91;4950770;28;20031;-74
2021/09/25 01:40:58;;;;;;;20.25;13.52;;;;;;;17.64;53.22;100550.25;4961903;28;20409;-74
2021/09/25 01:43:24;;;;;;;22.40;15.27;;;;;;;17.75;52.68;100583.56;4945812;29;20039;-74
2021/09/25 01:45:50;;;;;;;19.77;16.27;;;;;;;17.52;53.15;100587.72;4943396;28;20051;-74
2021/09/25 01:48:16;;;;;;;30.05;14.98;;;;;;;17.23;54.12;100567.22;4946834;28;20122;-73
2021/09/25 01:50:42;;;;;;;36.55;16.67;;;;;;;17.61;53.53;100586.63;4950113;28;20429;-74
2021/09/25 01:53:09;;;;;;;23.27;17.73;;;;;;;17.88;51.80;100593.00;4949000;28;20885;-74
2021/09/25 01:55:34;;;;;;;20.15;15.88;;;;;;;17.64;52.22;100603.31;4951154;29;20039;-74
2021/09/25 01:58:00;;;;;;;17.90;15.80;;;;;;;17.74;51.93;100595.97;4948346;28;20091;-74
2021/09/25 02:00:25;;;;;;;26.58;17.38;;;;;;;17.61;52.48;100582.19;4949503;29;20544;-73
2021/09/25 02:02:52;;;;;;;28.08;18.33;;;;;;;17.50;52.28;100590.41;4948562;28;20456;-74
2021/09/25 02:05:18;;;;;;;27.13;18.17;;;;;;;17.70;51.81;100591.69;4952660;28;20174;-74
2021/09/25 02:07:46;;;;;;;28.25;16.10;;;;;;;17.52;52.33;100580.63;4953289;29;20118;-73
2021/09/25 02:10:12;;;;;;;19.48;14.90;;;;;;;17.72;53.44;100589.84;4936560;29;20047;-73
2021/09/25 02:12:38;;;;;;;24.73;17.08;;;;;;;17.91;53.94;100595.56;4946838;28;20044;-73
2021/09/25 02:15:05;;;;;;;19.27;16.13;;;;;;;17.09;54.49;100602.03;4949890;29;20047;-74
2021/09/25 02:17:31;;;;;;;24.73;18.10;;;;;;;17.24;54.14;100603.47;4949098;29;20050;-74
2021/09/25 02:19:57;;;;;;;20.73;15.90;;;;;;;17.59;53.54;100617.63;4952046;28;20401;-73
2021/09/25 02:22:22;;;;;;;27.17;16.13;;;;;;;17.82;53.15;100628.56;4953428;28;20119;-73
2021/09/25 02:24:48;;;;;;;22.35;17.48;;;;;;;17.70;53.18;100631.50;4949673;28;20039;-73
2021/09/25 02:27:13;;;;;;;23.35;18.20;;;;;;;17.55;53.20;100631.88;4952872;28;20050;-73
2021/09/25 02:29:39;;;;;;;22.45;18.25;;;;;;;17.60;54.47;100622.00;4949403;28;20421;-73
2021/09/25 02:32:06;;;;;;;19.00;16.85;;;;;;;17.50;53.85;100621.38;4952431;29;20126;-72
2021/09/25 02:34:32;;;;;;;21.27;18.02;;;;;;;17.49;54.90;100640.88;4950183;28;20042;-74
2021/09/25 02:36:58;;;;;;;28.58;18.40;;;;;;;17.51;54.37;100628.41;4953077;28;20054;-73
2021/09/25 02:39:28;;;;;;;21.13;18.20;;;;;;;17.44;54.76;100648.06;4952210;28;20047;-73
2021/09/25 02:41:54;;;;;;;25.05;19.52;;;;;;;17.08;55.69;100632.13;4941599;28;20082;-73
2021/09/25 02:44:19;;;;;;;23.08;20.70;;;;;;;16.52;57.56;100658.06;4942437;29;20097;-73
2021/09/25 02:46:47;;;;;;;27.05;21.33;;;;;;;16.08;59.38;100639.47;4954039;28;20126;-73
2021/09/25 02:49:17;;;;;;;23.33;20.73;;;;;;;16.27;58.20;100647.94;4953263;28;20122;-73
2021/09/25 02:51:43;;;;;;;24.40;20.42;;;;;;;17.03;55.99;100663.19;4952134;28;20040;-74
2021/09/25 02:54:09;;;;;;;36.60;23.52;;;;;;;16.34;56.81;100654.88;4950271;28;20403;-73
2021/09/25 02:56:34;;;;;;;34.10;21.20;;;;;;;16.06;57.79;100673.09;4944225;29;20089;-72
2021/09/25 02:59:00;;;;;;;30.98;22.17;;;;;;;15.90;57.48;100658.38;4945453;28;20400;-73
2021/09/25 03:01:25;;;;;;;39.40;22.98;;;;;;;16.03;57.96;100689.88;4953041;28;20496;-72
2021/09/25 03:03:54;;;;;;;29.80;21.95;;;;;;;16.29;56.87;100683.22;4953671;28;20652;-73
2021/09/25 03:06:21;;;;;;;39.97;21.75;;;;;;;16.71;55.38;100667.34;4953292;29;20039;-73
2021/09/25 03:08:47;;;;;;;27.83;20.95;;;;;;;16.29;56.52;100677.91;4944096;28;20400;-74
2021/09/25 03:11:12;;;;;;;28.25;20.63;;;;;;;16.27;56.96;100711.50;4946878;29;20031;-73
2021/09/25 03:13:37;;;;;;;32.42;21.35;;;;;;;16.23;56.48;100691.28;4943442;28;20393;-73
2021/09/25 03:16:09;;;;;;;28.75;21.02;;;;;;;16.54;57.45;100690.69;4948777;28;20074;-73
2021/09/25 03:18:35;;;;;;;31.83;20.80;;;;;;;16.63;57.08;100723.16;4951941;29;20039;-74
2021/09/25 03:21:00;;;;;;;36.53;21.58;;;;;;;16.27;56.28;100692.97;4951420;28;20032;-74
2021/09/25 03:23:26;;;;;;;26.20;22.85;;;;;;;15.86;56.90;100706.97;4948086;28;20043;-74
2021/09/25 03:25:52;;;;;;;30.58;21.48;;;;;;;16.14;56.84;100699.41;4947365;28;20032;-72
2021/09/25 03:28:17;;;;;;;33.28;21.60;;;;;;;16.69;56.07;100727.47;4946576;29;20043;-74
2021/09/25 03:30:43;;;;;;;29.02;21.35;;;;;;;16.63;55.49;100712.56;4952474;28;20054;-74
2021/09/25 03:33:16;;;;;;;25.90;22.10;;;;;;;16.67;55.17;100740.75;4950771;28;20035;-73
2021/09/25 03:35:46;;;;;;;36.63;22.88;;;;;;;16.89;55.46;100745.66;4952259;29;20062;-73
2021/09/25 03:38:19;;;;;;;28.45;21.17;;;;;;;17.06;56.32;100745.28;4941141;28;20042;-74
2021/09/25 03:40:45;;;;;;;29.30;20.77;;;;;;;16.88;56.23;100720.06;4943614;28;20400;-74
2021/09/25 03:43:11;;;;;;;31.23;20.77;;;;;;;17.01;55.61;100752.47;4952535;29;20130;-73
2021/09/25 03:45:36;;;;;;;32.30;20.55;;;;;;;16.75;56.33;100729.13;4951004;28;20608;-73
2021/09/25 03:48:04;;;;;;;25.65;20.42;;;;;;;16.85;55.88;100759.88;4951418;28;20493;-74
2021/09/25 03:50:31;;;;;;;35.72;21.50;;;;;;;16.86;56.22;100764.28;4948792;28;20448;-74
2021/09/25 03:52:56;;;;;;;24.95;22.25;;;;;;;16.59;56.17;100726.78;4940868;29;20040;-73
2021/09/25 03:55:22;;;;;;;23.50;19.60;;;;;;;16.71;56.23;100762.75;4941627;28;20082;-74
2021/09/25 03:57:47;;;;;;;25.67;22.25;;;;;;;16.66;56.19;100756.69;4952645;28;20035;-73
2021/09/25 04:00:13;;;;;;;36.67;22.30;;;;;;;16.73;56.49;100754.78;4952167;28;20028;-73
2021/09/25 04:02:38;;;;;;;31.60;20.25;;;;;;;16.61;56.59;100753.25;4951699;28;20489;-74
2021/09/25 04:05:04;;;;;;;32.33;22.65;;;;;;;16.75;56.61;100777.69;4943957;28;20068;-73
2021/09/25 04:07:30;;;;;;;30.33;22.45;;;;;;;16.44;56.89;100753.56;4943653;29;20043;-72
2021/09/25 04:09:55;;;;;;;24.15;21.55;;;;;;;16.59;56.18;100770.94;4949267;28;20043;-73
2021/09/25 04:12:21;;;;;;;30.05;20.67;;;;;;;16.64;55.92;100777.91;4951327;28;20077;-73
2021/09/25 04:14:46;;;;;;;34.72;20.70;;;;;;;16.72;56.27;100761.00;4949730;29;20051;-73
2021/09/25 04:17:12;;;;;;;28.60;21.90;;;;;;;16.85;55.71;100765.16;4951794;28;20035;-73
2021/09/25 04:19:37;;;;;;;28.13;22.27;;;;;;;16.87;55.62;100795.16;4939845;28;20035;-73
2021/09/25 04:22:03;;;;;;;34.85;20.95;;;;;;;16.66;56.07;100789.34;4942345;29;20397;-72
2021/09/25 04:24:28;;;;;;;29.40;21.77;;;;;;;16.60;55.93;100792.13;4938743;28;20125;-73
2021/09/25 04:26:54;;;;;;;28.08;22.13;;;;;;;16.29;56.69;100775.91;4949705;28;20039;-72
2021/09/25 04:29:19;;;;;;;53.03;21.60;;;;;;;16.71;56.60;100794.56;4950464;28;20519;-72
2021/09/25 04:31:46;;;;;;;29.95;21.77;;;;;;;16.68;56.25;100778.72;4951509;28;20031;-73
2021/09/25 04:34:13;;;;;;;26.17;20.65;;;;;;;16.78;56.01;100790.88;4951658;28;20054;-72
2021/09/25 04:36:40;;;;;;;30.48;22.13;;;;;;;17.00;55.12;100791.38;4943408;28;20036;-72
2021/09/25 04:39:06;;;;;;;31.20;21.42;;;;;;;17.20;54.91;100814.81;4944941;29;20040;-73
2021/09/25 04:41:32;;;;;;;28.95;21.52;;;;;;;17.12;55.06;100813.25;4951935;28;20452;-72
2021/09/25 04:43:58;;;;;;;24.08;19.05;;;;;;;16.92;55.19;100798.59;4949694;28;20027;-73
2021/09/25 04:46:23;;;;;;;34.00;22.55;;;;;;;17.14;54.75;100822.91;4949209;28;20035;-74
2021/09/25 04:48:49;;;;;;;24.15;19.67;;;;;;;17.41;53.16;100829.41;4963574;28;20492;-74
2021/09/25 04:51:16;;;;;;;24.52;19.08;;;;;;;17.60;52.83;100826.34;4949586;29;20155;-75
2021/09/25 04:53:42;;;;;;;21.40;17.70;;;;;;;17.67;52.95;100830.59;4950054;28;20114;-74
2021/09/25 04:56:08;;;;;;;26.23;19.92;;;;;;;17.59;53.43;100832.56;4949439;28;20038;-74
2021/09/25 04:58:33;;;;;;;28.05;19.20;;;;;;;17.71;53.21;100825.19;4950234;28;20043;-74
2021/09/25 05:00:59;;;;;;;30.38;19.60;;;;;;;17.77;53.49;100824.19;4950746;28;20027;-74
2021/09/25 05:03:25;;;;;;;33.85;19.88;;;;;;;17.77;53.42;100826.84;4949316;28;20547;-72
2021/09/25 05:05:50;;;;;;;22.88;18.52;;;;;;;17.75;53.02;100815.41;4933337;29;20032;-74
2021/09/25 05:08:17;;;;;;;27.13;19.05;;;;;;;17.89;53.57;100839.88;4951806;28;20049;-73
2021/09/25 05:10:42;;;;;;;27.42;17.70;;;;;;;17.90;53.59;100828.31;4949326;28;20133;-72
2021/09/25 05:13:08;;;;;;;26.95;20.05;;;;;;;18.13;53.53;100849.03;4948874;28;20122;-73
2021/09/25 05:15:33;;;;;;;25.67;20.65;;;;;;;18.05;53.63;100821.78;4948562;28;20055;-74
2021/09/25 05:17:59;;;;;;;24.10;17.67;;;;;;;18.21;53.31;100854.16;4948336;28;20534;-72
2021/09/25 05:20:24;;;;;;;19.73;16.33;;;;;;;18.30;53.13;100848.59;4945460;29;20031;-72
2021/09/25 05:22:50;;;;;;;22.88;18.70;;;;;;;18.32;53.25;100841.47;4933952;29;20039;-74
2021/09/25 05:25:16;;;;;;;27.38;19.48;;;;;;;18.37;53.56;100843.16;4950960;28;20492;-72
2021/09/25 05:27:42;;;;;;;21.45;18.90;;;;;;;18.36;52.67;100842.28;4948645;28;20070;-72
2021/09/25 05:30:09;;;;;;;22.60;18.95;;;;;;;18.49;52.46;100864.94;4947278;28;20420;-72
2021/09/25 05:32:35;;;;;;;24.17;17.25;;;;;;;18.63;52.67;100866.41;4945332;28;20489;-73
2021/09/25 05:35:00;;;;;;;27.58;15.27;;;;;;;18.73;52.29;100860.81;4948504;28;20035;-71
2021/09/25 05:37:26;;;;;;;21.10;15.68;;;;;;;18.68;51.96;100849.44;4949524;28;20090;-73
2021/09/25 05:39:54;;;;;;;23.23;16.98;;;;;;;18.75;52.08;100852.78;4950823;28;20478;-74
2021/09/25 05:42:22;;;;;;;32.33;16.95;;;;;;;18.79;52.26;100858.94;4951051;29;20097;-71
2021/09/25 05:44:47;;;;;;;29.85;16.10;;;;;;;18.95;51.32;100865.56;4949475;28;20063;-71
2021/09/25 05:47:13;;;;;;;17.15;14.15;;;;;;;18.92;51.36;100863.88;4949649;28;20078;-72
2021/09/25 05:49:39;;;;;;;18.27;13.48;;;;;;;19.22;51.28;100887.00;4949349;28;20551;-72
2021/09/25 05:52:06;;;;;;;25.60;14.57;;;;;;;19.11;51.34;100872.22;4948458;28;20114;-73
2021/09/25 05:54:32;;;;;;;23.10;15.13;;;;;;;19.16;51.58;100872.09;4949060;28;20039;-73
2021/09/25 05:56:58;;;;;;;17.77;12.35;;;;;;;19.32;51.57;100873.41;4949655;28;20031;-74
2021/09/25 05:59:23;;;;;;;18.85;13.55;;;;;;;19.42;51.12;100874.00;4950448;28;20035;-72
2021/09/25 06:01:49;;;;;;;16.25;11.05;;;;;;;19.60;51.21;100894.75;4949223;28;20405;-72
2021/09/25 06:04:15;;;;;;;19.33;10.85;;;;;;;19.46;51.62;100875.66;4947619;28;20031;-74
2021/09/25 06:06:41;;;;;;;24.13;10.85;;;;;;;18.66;53.24;100907.06;4944154;29;20090;-74
2021/09/25 06:09:06;;;;;;;18.75;11.68;;;;;;;18.75;53.34;100908.59;4948511;28;20440;-73
2021/09/25 06:11:32;;;;;;;18.15;11.60;;;;;;;19.13;51.97;100907.63;4936723;29;20098;-74
2021/09/25 06:13:57;;;;;;;21.08;10.93;;;;;;;19.39;51.34;100893.59;4950442;28;20035;-73
2021/09/25 06:16:22;;;;;;;22.52;10.93;;;;;;;19.50;51.37;100924.34;4947639;29;20048;-72
2021/09/25 06:18:48;;;;;;;16.45;10.82;;;;;;;19.21;52.06;100909.22;4949809;29;20413;-73
2021/09/25 06:21:13;;;;;;;16.13;10.40;;;;;;;19.23;51.25;100904.72;4947589;28;20039;-73
2021/09/25 06:23:39;;;;;;;20.00;12.05;;;;;;;19.66;51.15;100928.28;4945582;28;20035;-73
2021/09/25 06:26:04;;;;;;;14.02;11.02;;;;;;;19.77;50.61;100936.03;4948938;28;20039;-74
2021/09/25 06:28:30;;;;;;;12.50;9.68;;;;;;;19.77;50.22;100923.56;4948325;29;20043;-73
2021/09/25 06:30:57;;;;;;;14.95;11.50;;;;;;;19.83;49.80;100927.84;4948655;29;20034;-72
2021/09/25 06:33:22;;;;;;;21.23;10.43;;;;;;;19.67;49.79;100934.53;4950538;28;20046;-73
2021/09/25 06:35:48;;;;;;;13.27;9.63;;;;;;;19.46;50.57;100938.69;4947360;29;20035;-74
2021/09/25 06:38:13;;;;;;;14.35;9.68;;;;;;;19.53;50.36;100933.13;4949111;28;20031;-76
2021/09/25 06:40:39;;;;;;;15.95;12.57;;;;;;;19.47;50.89;100951.06;4948499;29;20603;-74
2021/09/25 06:43:04;;;;;;;14.07;10.98;;;;;;;19.74;50.32;100944.09;4949204;28;20046;-73
2021/09/25 06:45:33;;;;;;;19.80;12.98;;;;;;;19.51;50.11;100944.72;4949629;28;20034;-74
2021/09/25 06:47:59;;;;;;;20.70;12.60;;;;;;;19.29;49.97;100948.00;4953227;28;20031;-73
2021/09/25 06:50:25;;;;;;;18.98;13.07;;;;;;;19.92;49.78;100972.81;4968091;28;20046;-74
2021/09/25 06:52:51;;;;;;;17.80;11.35;;;;;;;20.11;48.64;100941.19;4952694;28;20042;-74
2021/09/25 06:55:16;;;;;;;16.27;10.23;;;;;;;20.52;48.48;100978.13;4949517;28;20316;-73
2021/09/25 06:57:42;;;;;;;15.25;9.52;;;;;;;20.02;47.78;100950.34;4952266;28;20030;-74
2021/09/25 07:00:08;;;;;;;12.90;9.85;;;;;;;19.70;49.35;100983.25;4951000;29;20027;-73
2021/09/25 07:02:38;;;;;;;14.23;10.10;;;;;;;20.08;48.89;100962.59;4951380;28;20058;-73
2021/09/25 07:05:05;;;;;;;16.77;10.40;;;;;;;20.28;48.26;100963.78;4952633;28;20050;-74
2021/09/25 07:07:30;;;;;;;12.30;9.30;;;;;;;20.38;48.01;100974.09;4950639;29;20400;-74
2021/09/25 07:09:56;;;;;;;18.20;9.63;;;;;;;20.48;47.82;100976.47;4953495;28;20356;-73
2021/09/25 07:12:21;;;;;;;16.75;10.48;;;;;;;20.53;47.84;100980.72;4951893;28;20046;-74
2021/09/25 07:14:47;;;;;;;13.82;9.52;;;;;;;20.63;47.54;100978.69;4951246;28;20083;-73
2021/09/25 07:17:12;;;;;;;12.95;9.13;;;;;;;20.17;47.10;100964.09;4951959;29;20062;-74
2021/09/25 07:19:39;;;;;;;13.25;7.05;;;;;;;20.76;46.06;100973.81;4952229;29;20031;-74
2021/09/25 07:22:07;;;;;;;15.70;8.88;;;;;;;20.98;45.13;100965.97;4948563;29;20027;-73
2021/09/25 07:24:36;;;;;;;11.15;8.75;;;;;;;20.06;46.60;100988.41;4947395;28;20134;-73
2021/09/25 07:27:02;;;;;;;14.90;9.18;;;;;;;20.58;46.20;100964.59;4952427;29;20043;-74
2021/09/25 07:29:27;;;;;;;13.75;7.88;;;;;;;21.02;45.04;100989.78;4952977;28;20050;-73
2021/09/25 07:31:53;;;;;;;12.38;8.75;;;;;;;21.02;44.54;100973.78;4951546;28;20067;-73
2021/09/25 07:34:26;;;;;;;20.10;8.73;;;;;;;20.75;45.33;100978.28;4950567;28;20047;-73
2021/09/25 07:36:52;;;;;;;11.68;7.15;;;;;;;21.41;44.97;101004.53;4949999;29;20521;-73
2021/09/25 07:39:17;;;;;;;17.55;10.60;;;;;;;21.66;44.08;101004.53;4950456;28;20031;-74
2021/09/25 07:41:43;;;;;;;9.10;6.43;;;;;;;21.74;42.44;101002.44;4950601;28;20555;-74
2021/09/25 07:44:08;;;;;;;6.32;4.65;;;;;;;21.83;41.14;101003.88;4953058;28;20039;-75
2021/09/25 07:46:34;;;;;;;11.52;6.40;;;;;;;21.59;41.45;100987.84;4949755;28;20097;-74
2021/09/25 07:49:00;;;;;;;9.13;5.85;;;;;;;21.13;41.70;100970.75;4951368;28;20035;-75
2021/09/25 07:51:28;;;;;;;15.05;7.35;;;;;;;20.90;43.38;101006.22;4944405;29;20039;-74
2021/09/25 07:53:54;;;;;;;11.50;7.72;;;;;;;21.20;43.10;101025.66;4948328;29;20031;-74
2021/09/25 07:56:21;;;;;;;9.82;6.47;;;;;;;21.39;43.03;101017.88;4949698;28;20071;-75
2021/09/25 07:58:46;;;;;;;13.25;7.57;;;;;;;21.82;42.26;101016.38;4935492;29;20677;-74
2021/09/25 08:01:12;;;;;;;10.73;6.88;;;;;;;21.59;44.39;101017.22;4950777;29;20093;-70
2021/09/25 08:03:37;;;;;;;11.73;6.35;;;;;;;21.94;42.56;101023.06;4947182;28;20075;-71
2021/09/25 08:06:03;;;;;;;8.25;5.43;;;;;;;21.72;40.55;100996.25;4946225;29;20035;-72
2021/09/25 08:08:29;;;;;;;10.05;5.63;;;;;;;20.71;41.26;101031.75;4943494;28;20035;-72
2021/09/25 08:10:54;;;;;;;12.90;6.25;;;;;;;20.99;40.79;101027.25;4950212;29;20115;-70
2021/09/25 08:13:20;;;;;;;9.40;5.65;;;;;;;21.22;42.03;101033.63;4950923;28;20050;-71
2021/09/25 08:15:45;;;;;;;11.55;5.55;;;;;;;;;;4949071;28;20398;-72
2021/09/25 08:18:11;;;;;;;11.27;4.70;;;;;;;21.54;42.41;101010.28;4952690;28;20476;-70
2021/09/25 08:20:36;;;;;;;9.65;5.35;;;;;;;21.38;39.48;101005.47;4949798;29;20039;-71
2021/09/25 08:23:02;;;;;;;8.73;5.20;;;;;;;21.66;41.05;101032.09;4943487;29;20999;-69
2021/09/25 08:25:27;;;;;;;8.07;5.05;;;;;;;21.98;40.38;101002.44;4949740;28;20680;-69
2021/09/25 08:27:53;;;;;;;9.90;5.15;;;;;;;22.34;39.39;101014.41;4949646;28;20027;-70
2021/09/25 08:30:19;;;;;;;12.88;5.10;;;;;;;22.26;38.59;101005.81;4950475;28;20087;-71
2021/09/25 08:32:46;;;;;;;15.77;5.18;;;;;;;21.16;40.10;101031.16;4943340;28;20117;-73
2021/09/25 08:35:12;;;;;;;7.00;4.82;;;;;;;22.03;41.55;101022.72;4946904;29;20031;-70
2021/09/25 08:37:39;;;;;;;7.40;4.18;;;;;;;22.41;41.17;101014.19;4950356;29;20128;-70
2021/09/25 08:40:08;;;;;;;9.02;5.07;;;;;;;22.86;39.13;101019.47;4951652;28;20121;-72
2021/09/25 08:42:33;;;;;;;8.68;4.72;;;;;;;22.84;39.52;100994.56;4950019;28;20046;-71
2021/09/25 08:44:59;;;;;;;6.57;4.40;;;;;;;23.16;37.29;101020.03;4949470;28;20035;-70
2021/09/25 08:47:25;;;;;;;5.95;3.70;;;;;;;22.64;38.69;101000.75;4947167;29;20034;-70
2021/09/25 08:49:50;;;;;;;8.65;5.28;;;;;;;21.90;38.65;101021.44;4944998;29;20476;-70
2021/09/25 08:52:16;;;;;;;6.90;5.50;;;;;;;22.52;39.02;101019.97;4950089;29;20349;-71
2021/09/25 08:54:42;;;;;;;22.52;4.70;;;;;;;21.95;38.50;101002.56;4949876;28;20075;-70
2021/09/25 08:57:08;;;;;;;13.20;4.82;;;;;;;21.42;38.89;101000.91;4948472;29;20031;-71
2021/09/25 08:59:34;;;;;;;8.63;5.07;;;;;;;22.61;39.23;101024.94;4949052;28;20035;-71
2021/09/25 09:02:11;;;;;;;6.53;4.43;;;;;;;21.93;38.42;101021.31;4939597;29;20032;-71
2021/09/25 09:04:45;;;;;;;8.77;4.88;;;;;;;22.59;39.51;101010.75;4943258;28;20122;-74
2021/09/25 09:07:18;;;;;;;11.30;4.40;;;;;;;22.89;39.76;100989.88;4948917;28;20035;-73
2021/09/25 09:09:45;;;;;;;11.20;5.55;;;;;;;23.24;37.16;100992.91;4949936;29;20515;-74
2021/09/25 09:12:11;;;;;;;9.77;5.03;;;;;;;23.21;38.74;101010.94;4949491;29;20519;-70
2021/09/25 09:14:48;;;;;;;9.68;5.35;;;;;;;23.26;38.38;101019.63;4965041;28;20043;-75
2021/09/25 09:17:23;;;;;;;6.75;4.38;;;;;;;23.58;38.95;101023.59;4948388;28;20101;-69
2021/09/25 09:19:49;;;;;;;8.82;4.93;;;;;;;23.87;36.90;101016.06;4949936;28;20035;-69
2021/09/25 09:22:20;;;;;;;8.18;4.60;;;;;;;23.95;38.03;101021.94;4950005;28;20563;-68
2021/09/25 09:24:50;;;;;;;8.52;5.03;;;;;;;23.83;36.50;100993.00;4947307;29;20039;-70
2021/09/25 09:27:25;;;;;;;13.23;4.97;;;;;;;22.03;38.03;101011.13;4949798;28;20535;-70
2021/09/25 09:30:05;;;;;;;14.48;5.13;;;;;;;22.64;38.32;101032.88;4948263;29;20618;-70
2021/09/25 09:32:33;;;;;;;9.60;4.22;;;;;;;22.15;37.79;101005.34;4948609;29;20106;-70
2021/09/25 09:35:08;;;;;;;8.88;4.75;;;;;;;22.80;37.70;101008.13;4949134;28;20170;-71
2021/09/25 09:37:33;;;;;;;8.70;4.88;;;;;;;23.24;36.76;101010.78;4949837;29;20122;-69
2021/09/25 09:40:00;;;;;;;7.40;4.32;;;;;;;23.85;36.45;101042.06;4950825;29;20043;-70
2021/09/25 09:42:46;;;;;;;9.23;4.78;;;;;;;24.19;36.75;101038.72;4948230;28;20052;-69
2021/09/25 09:45:12;;;;;;;12.82;4.28;;;;;;;24.30;35.92;101030.13;4946415;28;20037;-69
2021/09/25 09:47:46;;;;;;;10.32;4.30;;;;;;;24.41;35.51;101036.72;4947762;29;20408;-70
2021/09/25 09:50:13;;;;;;;6.18;4.25;;;;;;;24.27;35.02;101009.69;4947675;29;20452;-73
2021/09/25 09:52:39;;;;;;;8.65;3.65;;;;;;;24.25;35.68;101027.69;4946979;28;20485;-69
2021/09/25 09:55:06;;;;;;;8.13;4.95;;;;;;;24.62;36.30;101034.00;4947568;29;20141;-69
2021/09/25 09:57:34;;;;;;;9.38;4.22;;;;;;;24.63;35.17;101025.88;4947482;28;20042;-68
2021/09/25 09:59:59;;;;;;;8.38;4.35;;;;;;;24.61;35.84;101005.44;4949374;28;20413;-69
2021/09/25 10:02:25;;;;;;;7.15;4.68;;;;;;;24.31;34.02;101029.22;4947284;29;20035;-71
2021/09/25 10:04:51;;;;;;;6.82;4.35;;;;;;;24.34;35.45;101024.56;4948973;28;20102;-68
2021/09/25 10:07:18;;;;;;;14.98;4.13;;;;;;;24.22;35.34;101025.16;4949226;28;20050;-71
2021/09/25 10:09:43;;;;;;;14.95;4.60;;;;;;;24.29;34.16;101007.81;4949691;28;20026;-69
2021/09/25 10:12:15;;;;;;;9.43;4.25;;;;;;;24.42;34.97;101000.06;4949843;28;20027;-73
2021/09/25 10:14:45;;;;;;;11.18;4.32;;;;;;;24.53;37.19;100997.75;4948638;29;20614;-72
2021/09/25 10:17:13;;;;;;;9.93;4.05;;;;;;;24.63;36.81;101022.31;4948842;29;20524;-73
2021/09/25 10:19:40;;;;;;;13.15;4.05;;;;;;;24.71;35.84;101016.59;4952423;28;20039;-69
2021/09/25 10:22:11;;;;;;;5.72;4.13;;;;;;;24.82;35.89;101004.38;4951867;28;20035;-69
2021/09/25 10:24:55;;;;;;;7.63;3.83;;;;;;;25.01;33.53;101017.72;4951940;28;20485;-70
2021/09/25 10:27:21;;;;;;;6.72;4.22;;;;;;;24.69;34.59;101008.59;4951631;29;20053;-69
2021/09/25 10:29:49;;;;;;;5.82;3.95;;;;;;;25.14;34.42;100992.94;4953833;29;20035;-70
2021/09/25 10:32:53;;;;;;;10.57;5.28;;;;;;;25.54;34.08;101007.00;4952878;29;20126;-69
2021/09/25 10:35:27;;;;;;;9.05;4.30;;;;;;;24.50;33.76;100986.31;4936448;29;20054;-70
2021/09/25 10:37:58;;;;;;;6.95;3.47;;;;;;;25.25;31.83;101001.34;4953203;28;20114;-70
2021/09/25 10:40:32;;;;;;;4.65;3.35;;;;;;;25.18;32.50;100960.50;4950570;29;20043;-69
2021/09/25 10:43:00;;;;;;;12.80;4.00;;;;;;;25.20;32.16;100998.88;4951652;29;20531;-70
2021/09/25 10:45:28;;;;;;;5.40;3.70;;;;;;;24.64;32.92;100973.94;4951941;28;20070;-71
2021/09/25 10:48:05;;;;;;;7.97;3.45;;;;;;;25.58;32.96;101003.19;4951732;28;20046;-70
2021/09/25 10:50:34;;;;;;;7.68;4.40;;;;;;;24.70;34.04;101004.09;4952193;28;20043;-72
2021/09/25 10:53:14;;;;;;;9.45;4.75;;;;;;;25.45;33.07;100997.59;4951259;29;20083;-71
2021/09/25 10:55:41;;;;;;;7.00;3.83;;;;;;;25.14;33.29;100987.56;4950759;28;20031;-69
2021/09/25 10:58:25;;;;;;;7.95;4.13;;;;;;;26.40;32.70;100994.25;4952825;28;20556;-68
2021/09/25 11:01:07;;;;;;;12.05;4.63;;;;;;;26.89;31.03;100997.69;4951644;29;20035;-68
2021/09/25 11:03:42;;;;;;;22.67;4.55;;;;;;;25.25;32.25;100994.13;4950558;29;20039;-69
2021/09/25 11:06:23;;;;;;;6.50;3.77;;;;;;;25.67;32.04;100975.81;4952289;29;20047;-68
2021/09/25 11:08:50;;;;;;;17.35;4.75;;;;;;;25.94;31.82;100997.66;4952760;28;20572;-68
2021/09/25 11:11:18;;;;;;;6.55;4.78;;;;;;;26.39;30.93;100995.22;4953663;29;20050;-68
2021/09/25 11:14:02;;;;;;;7.85;3.83;;;;;;;25.33;32.15;100999.09;4952270;29;20484;-70